sensor_id;sensor_type;location;lat;lon;timestamp;pressure;altitude;pressure_sealevel;temperature;humidity
25156;BME280;21913;52.456;13.634;2023-01-28T00:00:02;101472.16;;;10.54;59.95
25156;BME280;21913;52.456;13.634;2023-01-28T00:05:05;101477.34;;;10.54;59.92
25156;BME280;21913;52.456;13.634;2023-01-28T00:10:07;101473.00;;;10.53;60.02
25156;BME280;21913;52.456;13.634;2023-01-28T00:15:10;101474.75;;;10.54;59.92
25156;BME280;21913;52.456;13.634;2023-01-28T00:20:12;101472.16;;;10.54;60.03
25156;BME280;21913;52.456;13.634;2023-01-28T00:25:14;101470.47;;;10.55;59.99
25156;BME280;21913;52.456;13.634;2023-01-28T00:30:17;101467.00;;;10.54;59.95
25156;BME280;21913;52.456;13.634;2023-01-28T00:35:18;101474.75;;;10.54;59.91
25156;BME280;21913;52.456;13.634;2023-01-28T00:40:20;101479.94;;;10.54;60.10
25156;BME280;21913;52.456;13.634;2023-01-28T00:45:23;101486.00;;;10.55;59.85
25156;BME280;21913;52.456;13.634;2023-01-28T00:50:24;101478.25;;;10.55;60.02
25156;BME280;21913;52.456;13.634;2023-01-28T00:55:26;101485.09;;;10.54;59.96
25156;BME280;21913;52.456;13.634;2023-01-28T01:00:28;101486.88;;;10.56;59.97
25156;BME280;21913;52.456;13.634;2023-01-28T01:05:29;101486.88;;;10.56;59.95
25156;BME280;21913;52.456;13.634;2023-01-28T01:10:31;101473.88;;;10.54;59.87
25156;BME280;21913;52.456;13.634;2023-01-28T01:15:33;101485.09;;;10.54;59.94
25156;BME280;21913;52.456;13.634;2023-01-28T01:20:36;101490.28;;;10.54;59.93
25156;BME280;21913;52.456;13.634;2023-01-28T01:25:38;101491.19;;;10.55;59.86
25156;BME280;21913;52.456;13.634;2023-01-28T01:30:41;101485.09;;;10.54;59.91
25156;BME280;21913;52.456;13.634;2023-01-28T01:35:43;101488.53;;;10.53;59.87
25156;BME280;21913;52.456;13.634;2023-01-28T01:40:44;101490.28;;;10.54;59.86
25156;BME280;21913;52.456;13.634;2023-01-28T01:45:49;101497.25;;;10.56;59.76
25156;BME280;21913;52.456;13.634;2023-01-28T01:51:08;101498.94;;;10.55;59.83
25156;BME280;21913;52.456;13.634;2023-01-28T01:56:13;101489.47;;;10.56;59.85
25156;BME280;21913;52.456;13.634;2023-01-28T02:01:22;101498.94;;;10.55;59.92
25156;BME280;21913;52.456;13.634;2023-01-28T02:06:27;101493.78;;;10.55;59.93
25156;BME280;21913;52.456;13.634;2023-01-28T02:11:31;101505.81;;;10.54;59.86
25156;BME280;21913;52.456;13.634;2023-01-28T02:16:34;101499.75;;;10.54;59.70
25156;BME280;21913;52.456;13.634;2023-01-28T02:27:03;101507.59;;;10.56;59.75
25156;BME280;21913;52.456;13.634;2023-01-28T02:32:16;101516.16;;;10.54;59.70
25156;BME280;21913;52.456;13.634;2023-01-28T02:37:24;101511.00;;;10.54;59.99
25156;BME280;21913;52.456;13.634;2023-01-28T02:42:29;101511.91;;;10.55;59.71
25156;BME280;21913;52.456;13.634;2023-01-28T02:47:32;101509.25;;;10.53;59.78
25156;BME280;21913;52.456;13.634;2023-01-28T02:52:48;101504.13;;;10.55;59.86
25156;BME280;21913;52.456;13.634;2023-01-28T03:03:43;101498.03;;;10.54;59.83
25156;BME280;21913;52.456;13.634;2023-01-28T03:08:52;101504.13;;;10.55;59.75
25156;BME280;21913;52.456;13.634;2023-01-28T03:13:55;101504.06;;;10.53;59.77
25156;BME280;21913;52.456;13.634;2023-01-28T03:18:56;101500.63;;;10.54;59.63
25156;BME280;21913;52.456;13.634;2023-01-28T03:24:02;101500.63;;;10.54;59.54
25156;BME280;21913;52.456;13.634;2023-01-28T03:29:09;101497.19;;;10.54;59.78
25156;BME280;21913;52.456;13.634;2023-01-28T03:34:13;101507.53;;;10.54;59.63
25156;BME280;21913;52.456;13.634;2023-01-28T03:39:17;101500.63;;;10.54;59.67
25156;BME280;21913;52.456;13.634;2023-01-28T03:44:19;101503.22;;;10.54;59.67
25156;BME280;21913;52.456;13.634;2023-01-28T03:49:21;101503.22;;;10.54;59.61
25156;BME280;21913;52.456;13.634;2023-01-28T03:54:23;101499.75;;;10.54;59.59
25156;BME280;21913;52.456;13.634;2023-01-28T03:59:25;101506.66;;;10.53;59.50
25156;BME280;21913;52.456;13.634;2023-01-28T04:04:26;101511.84;;;10.53;59.66
25156;BME280;21913;52.456;13.634;2023-01-28T04:09:29;101514.47;;;10.55;59.54
25156;BME280;21913;52.456;13.634;2023-01-28T04:14:49;101503.19;;;10.53;59.52
25156;BME280;21913;52.456;13.634;2023-01-28T04:20:01;101509.25;;;10.53;59.71
25156;BME280;21913;52.456;13.634;2023-01-28T04:25:03;101517.00;;;10.53;59.71
25156;BME280;21913;52.456;13.634;2023-01-28T04:30:06;101520.47;;;10.54;59.67
25156;BME280;21913;52.456;13.634;2023-01-28T04:35:18;101525.66;;;10.54;59.50
25156;BME280;21913;52.456;13.634;2023-01-28T04:40:35;101524.78;;;10.53;59.39
25156;BME280;21913;52.456;13.634;2023-01-28T04:45:45;101535.13;;;10.53;59.60
25156;BME280;21913;52.456;13.634;2023-01-28T04:51:05;101535.13;;;10.53;59.59
25156;BME280;21913;52.456;13.634;2023-01-28T04:56:29;101537.72;;;10.53;59.54
25156;BME280;21913;52.456;13.634;2023-01-28T05:01:31;101538.56;;;10.52;59.63
25156;BME280;21913;52.456;13.634;2023-01-28T05:06:33;101528.22;;;10.52;59.52
25156;BME280;21913;52.456;13.634;2023-01-28T05:11:40;101545.47;;;10.53;59.60
25156;BME280;21913;52.456;13.634;2023-01-28T05:16:42;101529.94;;;10.53;59.47
25156;BME280;21913;52.456;13.634;2023-01-28T05:21:45;101540.31;;;10.53;59.58
25156;BME280;21913;52.456;13.634;2023-01-28T05:27:19;101536.00;;;10.54;59.38
25156;BME280;21913;52.456;13.634;2023-01-28T05:32:20;101530.81;;;10.54;59.48
25156;BME280;21913;52.456;13.634;2023-01-28T05:37:23;101536.88;;;10.54;59.42
25156;BME280;21913;52.456;13.634;2023-01-28T05:42:28;101536.84;;;10.53;59.45
25156;BME280;21913;52.456;13.634;2023-01-28T05:47:42;101532.53;;;10.53;59.39
25156;BME280;21913;52.456;13.634;2023-01-28T05:52:57;101542.88;;;10.53;59.47
25156;BME280;21913;52.456;13.634;2023-01-28T05:58:05;101554.97;;;10.54;59.34
25156;BME280;21913;52.456;13.634;2023-01-28T06:03:06;101551.50;;;10.52;59.40
25156;BME280;21913;52.456;13.634;2023-01-28T06:08:09;101550.66;;;10.53;59.39
25156;BME280;21913;52.456;13.634;2023-01-28T06:13:11;101557.53;;;10.53;59.38
25156;BME280;21913;52.456;13.634;2023-01-28T06:18:35;101549.78;;;10.53;59.43
25156;BME280;21913;52.456;13.634;2023-01-28T06:23:36;101546.31;;;10.52;59.43
25156;BME280;21913;52.456;13.634;2023-01-28T06:28:41;101555.84;;;10.53;59.46
25156;BME280;21913;52.456;13.634;2023-01-28T06:33:43;101560.13;;;10.53;59.38
25156;BME280;21913;52.456;13.634;2023-01-28T06:38:45;101550.66;;;10.53;59.42
25156;BME280;21913;52.456;13.634;2023-01-28T06:43:46;101551.50;;;10.52;59.51
25156;BME280;21913;52.456;13.634;2023-01-28T06:48:48;101555.84;;;10.53;59.31
25156;BME280;21913;52.456;13.634;2023-01-28T06:53:49;101547.19;;;10.53;59.34
25156;BME280;21913;52.456;13.634;2023-01-28T06:58:51;101548.91;;;10.52;59.28
25156;BME280;21913;52.456;13.634;2023-01-28T07:03:52;101539.44;;;10.53;59.25
25156;BME280;21913;52.456;13.634;2023-01-28T07:08:54;101540.31;;;10.53;59.11
25156;BME280;21913;52.456;13.634;2023-01-28T07:13:56;101544.59;;;10.53;59.33
25156;BME280;21913;52.456;13.634;2023-01-28T07:18:57;101555.84;;;10.53;59.27
25156;BME280;21913;52.456;13.634;2023-01-28T07:23:59;101563.59;;;10.53;59.22
25156;BME280;21913;52.456;13.634;2023-01-28T07:29:01;101553.22;;;10.52;59.23
25156;BME280;21913;52.456;13.634;2023-01-28T07:34:02;101559.25;;;10.52;59.36
25156;BME280;21913;52.456;13.634;2023-01-28T07:39:04;101548.03;;;10.52;59.11
25156;BME280;21913;52.456;13.634;2023-01-28T07:44:06;101551.50;;;10.52;59.19
25156;BME280;21913;52.456;13.634;2023-01-28T07:49:07;101559.25;;;10.52;59.27
25156;BME280;21913;52.456;13.634;2023-01-28T07:54:09;101561.84;;;10.52;59.14
25156;BME280;21913;52.456;13.634;2023-01-28T07:59:11;101573.06;;;10.53;59.17
25156;BME280;21913;52.456;13.634;2023-01-28T08:04:12;101575.66;;;10.53;59.25
25156;BME280;21913;52.456;13.634;2023-01-28T08:09:14;101581.72;;;10.53;59.17
25156;BME280;21913;52.456;13.634;2023-01-28T08:14:15;101581.69;;;10.52;59.17
25156;BME280;21913;52.456;13.634;2023-01-28T08:19:17;101595.50;;;10.52;59.22
25156;BME280;21913;52.456;13.634;2023-01-28T08:24:19;101604.13;;;10.53;59.20
25156;BME280;21913;52.456;13.634;2023-01-28T08:29:20;101610.16;;;10.52;59.18
25156;BME280;21913;52.456;13.634;2023-01-28T08:34:23;101618.78;;;10.52;59.09
25156;BME280;21913;52.456;13.634;2023-01-28T08:39:25;101633.44;;;10.52;59.20
25156;BME280;21913;52.456;13.634;2023-01-28T08:44:27;101636.91;;;10.52;59.06
25156;BME280;21913;52.456;13.634;2023-01-28T08:49:28;101641.22;;;10.53;59.20
25156;BME280;21913;52.456;13.634;2023-01-28T08:54:30;101653.31;;;10.53;58.98
25156;BME280;21913;52.456;13.634;2023-01-28T08:59:31;101659.34;;;10.53;59.09
25156;BME280;21913;52.456;13.634;2023-01-28T09:04:33;101658.47;;;10.53;59.05
25156;BME280;21913;52.456;13.634;2023-01-28T09:09:34;101663.66;;;10.53;59.02
25156;BME280;21913;52.456;13.634;2023-01-28T09:14:36;101672.28;;;10.53;59.07
25156;BME280;21913;52.456;13.634;2023-01-28T09:19:38;101682.63;;;10.53;59.11
25156;BME280;21913;52.456;13.634;2023-01-28T09:24:39;101688.66;;;10.52;59.04
25156;BME280;21913;52.456;13.634;2023-01-28T09:29:41;101702.47;;;10.53;59.15
25156;BME280;21913;52.456;13.634;2023-01-28T09:34:42;101695.56;;;10.52;59.01
25156;BME280;21913;52.456;13.634;2023-01-28T09:39:44;101699.00;;;10.52;59.06
25156;BME280;21913;52.456;13.634;2023-01-28T09:50:14;101703.34;;;10.53;58.99
25156;BME280;21913;52.456;13.634;2023-01-28T09:55:24;101718.88;;;10.53;58.90
25156;BME280;21913;52.456;13.634;2023-01-28T10:06:30;101719.72;;;10.52;58.98
25156;BME280;21913;52.456;13.634;2023-01-28T10:16:42;101691.25;;;10.52;58.89
25156;BME280;21913;52.456;13.634;2023-01-28T10:21:54;101679.19;;;10.53;59.05
25156;BME280;21913;52.456;13.634;2023-01-28T10:26:58;101698.13;;;10.52;59.02
25156;BME280;21913;52.456;13.634;2023-01-28T10:32:20;101685.22;;;10.53;58.86
25156;BME280;21913;52.456;13.634;2023-01-28T10:37:22;101690.41;;;10.53;59.02
25156;BME280;21913;52.456;13.634;2023-01-28T10:42:30;101682.63;;;10.53;58.85
25156;BME280;21913;52.456;13.634;2023-01-28T10:47:37;101674.88;;;10.53;58.88
25156;BME280;21913;52.456;13.634;2023-01-28T10:52:54;101685.22;;;10.53;58.90
25156;BME280;21913;52.456;13.634;2023-01-28T10:57:55;101692.13;;;10.53;58.87
25156;BME280;21913;52.456;13.634;2023-01-28T11:02:58;101704.19;;;10.52;58.83
25156;BME280;21913;52.456;13.634;2023-01-28T11:08:04;101702.47;;;10.53;58.72
25156;BME280;21913;52.456;13.634;2023-01-28T11:13:34;101722.34;;;10.54;58.88
25156;BME280;21913;52.456;13.634;2023-01-28T11:18:46;101718.00;;;10.53;58.77
25156;BME280;21913;52.456;13.634;2023-01-28T11:23:58;101711.03;;;10.50;58.89
25156;BME280;21913;52.456;13.634;2023-01-28T11:29:01;101711.06;;;10.52;58.71
25156;BME280;21913;52.456;13.634;2023-01-28T11:34:04;101686.94;;;10.53;58.72
25156;BME280;21913;52.456;13.634;2023-01-28T11:39:20;101697.28;;;10.53;58.70
25156;BME280;21913;52.456;13.634;2023-01-28T11:44:26;101683.47;;;10.52;58.70
25156;BME280;21913;52.456;13.634;2023-01-28T11:49:40;101686.09;;;10.54;58.78
25156;BME280;21913;52.456;13.634;2023-01-28T12:16:40;101650.72;;;10.53;58.70
25156;BME280;21913;52.456;13.634;2023-01-28T12:38:11;101611.03;;;10.52;58.72
25156;BME280;21913;52.456;13.634;2023-01-28T12:48:46;101567.03;;;10.52;58.72
25156;BME280;21913;52.456;13.634;2023-01-28T12:54:01;101543.72;;;10.52;58.61
25156;BME280;21913;52.456;13.634;2023-01-28T12:59:11;101532.50;;;10.52;58.67
25156;BME280;21913;52.456;13.634;2023-01-28T13:04:30;101545.44;;;10.52;58.62
25156;BME280;21913;52.456;13.634;2023-01-28T13:09:35;101567.84;;;10.50;58.56
25156;BME280;21913;52.456;13.634;2023-01-28T13:14:39;101547.16;;;10.51;58.62
25156;BME280;21913;52.456;13.634;2023-01-28T13:19:41;101551.50;;;10.52;58.68
25156;BME280;21913;52.456;13.634;2023-01-28T13:24:42;101545.44;;;10.52;58.71
25156;BME280;21913;52.456;13.634;2023-01-28T13:29:47;101566.16;;;10.52;58.63
25156;BME280;21913;52.456;13.634;2023-01-28T13:35:03;101567.91;;;10.53;58.66
25156;BME280;21913;52.456;13.634;2023-01-28T13:50:22;101595.50;;;10.52;58.61
25156;BME280;21913;52.456;13.634;2023-01-28T13:55:35;101617.94;;;10.53;58.57
25156;BME280;21913;52.456;13.634;2023-01-28T14:17:50;101582.56;;;10.52;58.77
25156;BME280;21913;52.456;13.634;2023-01-28T14:23:00;101567.91;;;10.53;58.91
25156;BME280;21913;52.456;13.634;2023-01-28T14:28:04;101543.72;;;10.52;58.89
25156;BME280;21913;52.456;13.634;2023-01-28T14:33:09;101528.22;;;10.52;58.85
25156;BME280;21913;52.456;13.634;2023-01-28T14:38:17;101519.59;;;10.53;58.84
25156;BME280;21913;52.456;13.634;2023-01-28T14:43:24;101541.16;;;10.54;58.79
25156;BME280;21913;52.456;13.634;2023-01-28T14:49:04;101556.69;;;10.54;58.75
25156;BME280;21913;52.456;13.634;2023-01-28T15:04:37;101565.34;;;10.54;58.88
25156;BME280;21913;52.456;13.634;2023-01-28T15:09:38;101587.81;;;10.56;58.75
25156;BME280;21913;52.456;13.634;2023-01-28T15:14:40;101576.59;;;10.55;58.75
25156;BME280;21913;52.456;13.634;2023-01-28T15:19:43;101594.72;;;10.55;58.84
25156;BME280;21913;52.456;13.634;2023-01-28T15:24:45;101598.16;;;10.56;58.72
25156;BME280;21913;52.456;13.634;2023-01-28T15:29:51;101599.91;;;10.57;58.57
25156;BME280;21913;52.456;13.634;2023-01-28T15:34:54;101602.50;;;10.57;58.79
25156;BME280;21913;52.456;13.634;2023-01-28T15:40:05;101600.78;;;10.57;58.68
25156;BME280;21913;52.456;13.634;2023-01-28T15:45:14;101599.06;;;10.58;58.78
25156;BME280;21913;52.456;13.634;2023-01-28T15:50:24;101600.75;;;10.56;58.67
25156;BME280;21913;52.456;13.634;2023-01-28T16:00:39;101610.25;;;10.55;58.57
25156;BME280;21913;52.456;13.634;2023-01-28T16:05:41;101624.00;;;10.54;58.32
25156;BME280;21913;52.456;13.634;2023-01-28T16:10:55;101651.53;;;10.50;56.35
25156;BME280;21913;52.456;13.634;2023-01-28T16:15:57;101650.66;;;10.50;56.25
25156;BME280;21913;52.456;13.634;2023-01-28T16:21:00;101661.03;;;10.51;56.25
25156;BME280;21913;52.456;13.634;2023-01-28T16:26:05;101660.19;;;10.52;56.40
25156;BME280;21913;52.456;13.634;2023-01-28T16:31:09;101657.59;;;10.52;56.75
25156;BME280;21913;52.456;13.634;2023-01-28T16:36:13;101666.25;;;10.53;56.79
25156;BME280;21913;52.456;13.634;2023-01-28T16:41:25;101676.63;;;10.54;56.91
25156;BME280;21913;52.456;13.634;2023-01-28T16:46:27;101651.59;;;10.53;56.91
25156;BME280;21913;52.456;13.634;2023-01-28T16:51:29;101637.78;;;10.53;57.15
25156;BME280;21913;52.456;13.634;2023-01-28T16:56:32;101631.72;;;10.52;57.14
25156;BME280;21913;52.456;13.634;2023-01-28T17:01:48;101618.81;;;10.54;57.20
25156;BME280;21913;52.456;13.634;2023-01-28T17:06:50;101617.94;;;10.53;57.22
25156;BME280;21913;52.456;13.634;2023-01-28T17:11:53;101623.13;;;10.53;57.38
25156;BME280;21913;52.456;13.634;2023-01-28T17:16:55;101629.16;;;10.54;57.28
25156;BME280;21913;52.456;13.634;2023-01-28T17:21:59;101629.16;;;10.54;57.28
25156;BME280;21913;52.456;13.634;2023-01-28T17:27:01;101634.31;;;10.52;57.33
25156;BME280;21913;52.456;13.634;2023-01-28T17:32:02;101663.66;;;10.53;57.32
25156;BME280;21913;52.456;13.634;2023-01-28T17:37:04;101664.53;;;10.53;57.39
25156;BME280;21913;52.456;13.634;2023-01-28T17:42:05;101681.78;;;10.53;57.33
25156;BME280;21913;52.456;13.634;2023-01-28T17:47:07;101669.69;;;10.53;57.49
25156;BME280;21913;52.456;13.634;2023-01-28T17:52:09;101679.19;;;10.53;57.40
25156;BME280;21913;52.456;13.634;2023-01-28T17:57:10;101662.78;;;10.52;57.33
25156;BME280;21913;52.456;13.634;2023-01-28T18:02:12;101665.38;;;10.52;57.34
25156;BME280;21913;52.456;13.634;2023-01-28T18:07:14;101654.19;;;10.53;57.48
25156;BME280;21913;52.456;13.634;2023-01-28T18:12:16;101670.53;;;10.52;57.37
25156;BME280;21913;52.456;13.634;2023-01-28T18:17:18;101665.38;;;10.52;57.37
25156;BME280;21913;52.456;13.634;2023-01-28T18:22:19;101678.31;;;10.52;57.41
25156;BME280;21913;52.456;13.634;2023-01-28T18:27:21;101673.09;;;10.51;57.37
25156;BME280;21913;52.456;13.634;2023-01-28T18:32:22;101671.38;;;10.51;57.41
25156;BME280;21913;52.456;13.634;2023-01-28T18:37:24;101678.31;;;10.52;57.34
25156;BME280;21913;52.456;13.634;2023-01-28T18:42:26;101685.16;;;10.50;57.29
25156;BME280;21913;52.456;13.634;2023-01-28T18:47:27;101693.81;;;10.51;57.29
25156;BME280;21913;52.456;13.634;2023-01-28T18:52:29;101701.56;;;10.51;57.30
25156;BME280;21913;52.456;13.634;2023-01-28T18:57:30;101691.22;;;10.51;57.33
25156;BME280;21913;52.456;13.634;2023-01-28T19:02:32;101698.97;;;10.51;57.35
25156;BME280;21913;52.456;13.634;2023-01-28T19:07:34;101700.69;;;10.50;57.35
25156;BME280;21913;52.456;13.634;2023-01-28T19:12:35;101709.34;;;10.51;57.27
25156;BME280;21913;52.456;13.634;2023-01-28T19:17:37;101706.75;;;10.51;57.24
25156;BME280;21913;52.456;13.634;2023-01-28T19:22:39;101711.03;;;10.50;57.25
25156;BME280;21913;52.456;13.634;2023-01-28T19:27:42;101716.22;;;10.50;57.19
25156;BME280;21913;52.456;13.634;2023-01-28T19:32:44;101711.91;;;10.51;57.25
25156;BME280;21913;52.456;13.634;2023-01-28T19:37:45;101718.81;;;10.50;57.35
25156;BME280;21913;52.456;13.634;2023-01-28T19:42:51;101718.81;;;10.50;57.35
25156;BME280;21913;52.456;13.634;2023-01-28T19:47:53;101730.88;;;10.50;57.34
25156;BME280;21913;52.456;13.634;2023-01-28T19:52:54;101724.81;;;10.49;57.21
25156;BME280;21913;52.456;13.634;2023-01-28T19:57:56;101717.06;;;10.49;57.33
25156;BME280;21913;52.456;13.634;2023-01-28T20:02:58;101716.16;;;10.49;57.08
25156;BME280;21913;52.456;13.634;2023-01-28T20:07:59;101714.47;;;10.49;56.97
25156;BME280;21913;52.456;13.634;2023-01-28T20:13:01;101705.81;;;10.49;57.06
25156;BME280;21913;52.456;13.634;2023-01-28T20:18:03;101695.44;;;10.49;57.12
25156;BME280;21913;52.456;13.634;2023-01-28T20:23:05;101697.16;;;10.48;57.13
25156;BME280;21913;52.456;13.634;2023-01-28T20:28:07;101705.00;;;10.50;57.01
25156;BME280;21913;52.456;13.634;2023-01-28T20:33:08;101694.66;;;10.50;57.03
25156;BME280;21913;52.456;13.634;2023-01-28T20:38:10;101686.00;;;10.49;57.04
25156;BME280;21913;52.456;13.634;2023-01-28T20:43:12;101675.66;;;10.49;57.06
25156;BME280;21913;52.456;13.634;2023-01-28T20:48:14;101659.22;;;10.49;57.20
25156;BME280;21913;52.456;13.634;2023-01-28T20:53:16;101666.13;;;10.48;57.05
25156;BME280;21913;52.456;13.634;2023-01-28T20:58:17;101662.72;;;10.49;57.08
25156;BME280;21913;52.456;13.634;2023-01-28T21:03:19;101661.81;;;10.49;57.05
25156;BME280;21913;52.456;13.634;2023-01-28T21:08:21;101657.47;;;10.48;57.03
25156;BME280;21913;52.456;13.634;2023-01-28T21:13:23;101663.53;;;10.48;57.08
25156;BME280;21913;52.456;13.634;2023-01-28T21:18:24;101655.75;;;10.48;57.11
25156;BME280;21913;52.456;13.634;2023-01-28T21:23:26;101668.69;;;10.48;56.86
25156;BME280;21913;52.456;13.634;2023-01-28T21:28:27;101668.69;;;10.48;57.02
25156;BME280;21913;52.456;13.634;2023-01-28T21:33:29;101667.81;;;10.48;56.95
25156;BME280;21913;52.456;13.634;2023-01-28T21:38:32;101661.78;;;10.47;56.96
25156;BME280;21913;52.456;13.634;2023-01-28T21:43:34;101666.13;;;10.48;56.81
25156;BME280;21913;52.456;13.634;2023-01-28T21:48:36;101663.53;;;10.48;56.99
25156;BME280;21913;52.456;13.634;2023-01-28T21:53:39;101681.63;;;10.48;56.91
25156;BME280;21913;52.456;13.634;2023-01-28T21:58:40;101680.78;;;10.48;56.96
25156;BME280;21913;52.456;13.634;2023-01-28T22:03:42;101686.81;;;10.48;56.96
25156;BME280;21913;52.456;13.634;2023-01-28T22:08:43;101679.06;;;10.48;56.98
25156;BME280;21913;52.456;13.634;2023-01-28T22:13:46;101674.75;;;10.49;56.86
25156;BME280;21913;52.456;13.634;2023-01-28T22:18:47;101663.50;;;10.47;56.78
25156;BME280;21913;52.456;13.634;2023-01-28T22:23:49;101669.53;;;10.47;56.83
25156;BME280;21913;52.456;13.634;2023-01-28T22:28:50;101677.31;;;10.47;56.94
25156;BME280;21913;52.456;13.634;2023-01-28T22:33:52;101679.03;;;10.47;56.81
25156;BME280;21913;52.456;13.634;2023-01-28T22:38:54;101667.81;;;10.48;56.74
25156;BME280;21913;52.456;13.634;2023-01-28T22:43:56;101673.84;;;10.47;56.82
25156;BME280;21913;52.456;13.634;2023-01-28T22:48:57;101660.03;;;10.46;56.72
25156;BME280;21913;52.456;13.634;2023-01-28T22:53:59;101658.31;;;10.47;56.72
25156;BME280;21913;52.456;13.634;2023-01-28T22:59:02;101667.00;;;10.49;56.80
25156;BME280;21913;52.456;13.634;2023-01-28T23:04:04;101651.44;;;10.47;56.79
25156;BME280;21913;52.456;13.634;2023-01-28T23:09:06;101653.16;;;10.47;56.72
25156;BME280;21913;52.456;13.634;2023-01-28T23:14:08;101654.03;;;10.47;56.80
25156;BME280;21913;52.456;13.634;2023-01-28T23:19:10;101650.56;;;10.47;56.78
25156;BME280;21913;52.456;13.634;2023-01-28T23:24:17;101664.38;;;10.47;56.75
25156;BME280;21913;52.456;13.634;2023-01-28T23:29:20;101664.38;;;10.47;56.69
25156;BME280;21913;52.456;13.634;2023-01-28T23:34:22;101651.41;;;10.46;56.74
25156;BME280;21913;52.456;13.634;2023-01-28T23:39:24;101655.72;;;10.47;56.79
25156;BME280;21913;52.456;13.634;2023-01-28T23:44:26;101644.50;;;10.46;56.71
25156;BME280;21913;52.456;13.634;2023-01-28T23:49:28;101646.25;;;10.47;56.66
25156;BME280;21913;52.456;13.634;2023-01-28T23:54:30;101632.41;;;10.45;56.58
25156;BME280;21913;52.456;13.634;2023-01-28T23:59:31;101631.56;;;10.46;56.56
